Time;durP1;ratioP1;P1;durP2;ratioP2;P2;SDS_P1;SDS_P2;PMS_P1;PMS_P2;Temp;Humidity;BMP_temperature;BMP_pressure;BME280_temperature;BME280_humidity;BME280_pressure;Samples;Min_cycle;Max_cycle;Signal;HPM_P1;HPM_P2
2023/03/07 00:00:49;;;;;;;37.50;18.88;;;2.10;99.90;;;;;;5052032;28;20017;-46
2023/03/07 00:03:16;;;;;;;41.50;20.48;;;2.10;99.90;;;;;;5048337;28;20021;-45
2023/03/07 00:05:42;;;;;;;40.28;20.52;;;2.10;99.90;;;;;;5049153;28;20071;-47
2023/03/07 00:08:08;;;;;;;39.20;19.63;;;2.20;99.90;;;;;;5048954;28;20437;-47
2023/03/07 00:10:34;;;;;;;38.80;20.50;;;2.20;99.90;;;;;;5047247;28;20021;-46
2023/03/07 00:12:59;;;;;;;40.03;19.65;;;2.20;99.90;;;;;;5048230;28;20025;-45
2023/03/07 00:15:25;;;;;;;37.40;19.10;;;2.20;99.90;;;;;;5047823;28;20096;-45
2023/03/07 00:17:51;;;;;;;41.00;20.85;;;2.20;99.90;;;;;;5047880;28;20037;-46
2023/03/07 00:20:16;;;;;;;40.80;20.45;;;2.30;99.90;;;;;;5047885;28;20071;-46
2023/03/07 00:22:45;;;;;;;40.45;19.88;;;2.30;99.90;;;;;;5048580;28;20051;-46
2023/03/07 00:25:12;;;;;;;39.55;20.25;;;2.30;99.90;;;;;;5051905;28;20028;-46
2023/03/07 00:27:37;;;;;;;40.95;19.52;;;2.40;99.90;;;;;;5052381;28;20099;-46
2023/03/07 00:30:04;;;;;;;37.03;20.38;;;2.40;99.90;;;;;;5052001;28;20654;-46
2023/03/07 00:32:30;;;;;;;40.72;19.35;;;2.40;99.90;;;;;;5052132;28;20029;-45
2023/03/07 00:34:58;;;;;;;36.65;20.63;;;2.40;99.90;;;;;;5051906;28;20555;-45
2023/03/07 00:37:23;;;;;;;38.58;19.73;;;2.40;99.90;;;;;;5052168;28;20502;-46
2023/03/07 00:39:49;;;;;;;38.25;18.75;;;2.40;99.90;;;;;;5052172;28;20025;-45
2023/03/07 00:42:15;;;;;;;41.60;20.58;;;2.40;99.90;;;;;;5052160;28;20021;-49
2023/03/07 00:44:40;;;;;;;41.40;20.60;;;2.50;99.90;;;;;;5051483;28;20492;-47
2023/03/07 00:47:06;;;;;;;41.90;20.60;;;2.50;99.90;;;;;;5044180;28;20383;-46
2023/03/07 00:49:31;;;;;;;41.13;20.50;;;2.60;99.90;;;;;;5052111;28;20082;-46
2023/03/07 00:51:57;;;;;;;43.05;21.05;;;2.60;99.90;;;;;;5053046;28;20029;-45
2023/03/07 00:54:22;;;;;;;40.83;19.38;;;2.60;99.90;;;;;;5051603;28;20025;-47
2023/03/07 00:56:48;;;;;;;37.85;18.77;;;2.60;99.90;;;;;;5052356;28;20032;-45
2023/03/07 00:59:13;;;;;;;41.28;20.33;;;2.60;99.90;;;;;;5052067;28;20422;-49
2023/03/07 01:01:39;;;;;;;42.15;20.60;;;2.70;99.90;;;;;;5050500;28;20045;-45
2023/03/07 01:04:04;;;;;;;43.28;20.25;;;2.70;99.90;;;;;;5051150;28;20020;-45
2023/03/07 01:06:32;;;;;;;41.05;20.33;;;2.70;99.90;;;;;;5051656;28;20090;-45
2023/03/07 01:09:06;;;;;;;41.90;20.58;;;2.70;99.90;;;;;;5051985;28;20425;-45
2023/03/07 01:11:32;;;;;;;40.83;20.00;;;2.70;99.90;;;;;;5051686;28;20100;-45
2023/03/07 01:13:59;;;;;;;41.80;19.85;;;2.80;99.90;;;;;;5051258;28;20096;-45
2023/03/07 01:16:34;;;;;;;37.78;19.52;;;2.70;99.90;;;;;;5049128;28;20025;-45
2023/03/07 01:19:04;;;;;;;47.65;21.77;;;2.80;99.90;;;;;;5051191;28;20516;-45
2023/03/07 01:21:35;;;;;;;41.60;20.60;;;2.70;99.90;;;;;;5051482;28;20047;-45
2023/03/07 01:24:01;;;;;;;39.30;19.83;;;2.70;99.90;;;;;;5050981;28;20025;-46
2023/03/07 01:26:30;;;;;;;39.20;20.50;;;2.70;99.90;;;;;;5051445;28;20017;-45
2023/03/07 01:28:58;;;;;;;48.22;21.00;;;2.80;99.90;;;;;;5051303;28;20024;-45
2023/03/07 01:31:25;;;;;;;41.60;20.00;;;2.80;99.90;;;;;;5051516;28;20025;-45
2023/03/07 01:33:52;;;;;;;39.47;19.20;;;2.90;99.90;;;;;;5051371;28;20070;-46
2023/03/07 01:36:29;;;;;;;43.08;21.25;;;2.90;99.90;;;;;;5049711;28;20100;-39
2023/03/07 01:39:06;;;;;;;38.47;19.00;;;2.80;99.90;;;;;;5046554;28;20094;-39
2023/03/07 01:41:34;;;;;;;42.05;20.35;;;2.80;99.90;;;;;;5048628;28;20024;-39
2023/03/07 01:44:04;;;;;;;42.67;21.13;;;2.70;99.90;;;;;;5049996;28;20025;-39
2023/03/07 01:46:35;;;;;;;42.22;20.55;;;2.70;99.90;;;;;;5050249;28;20020;-39
2023/03/07 01:49:06;;;;;;;45.42;21.33;;;2.70;99.90;;;;;;5050459;28;20538;-39
2023/03/07 01:51:33;;;;;;;46.88;21.52;;;2.60;99.90;;;;;;5050760;28;20032;-39
2023/03/07 01:54:00;;;;;;;41.10;20.48;;;2.60;99.90;;;;;;5050085;28;20366;-39
2023/03/07 01:56:26;;;;;;;47.35;21.33;;;2.60;99.90;;;;;;5047933;28;20021;-39
2023/03/07 01:58:53;;;;;;;45.55;21.77;;;2.50;99.90;;;;;;5050525;28;20096;-39
2023/03/07 02:01:19;;;;;;;42.65;21.50;;;2.50;99.90;;;;;;5049978;28;20379;-39
2023/03/07 02:03:52;;;;;;;47.30;20.55;;;2.40;99.90;;;;;;5050115;28;20021;-39
2023/03/07 02:06:18;;;;;;;42.05;21.33;;;2.30;99.90;;;;;;5049729;28;20017;-39
2023/03/07 02:08:46;;;;;;;43.85;21.90;;;2.40;99.90;;;;;;5050076;28;20394;-39
2023/03/07 02:11:12;;;;;;;41.45;19.90;;;2.40;99.90;;;;;;5066081;28;20028;-45
2023/03/07 02:13:38;;;;;;;42.70;20.55;;;2.40;99.90;;;;;;5050437;28;20021;-45
2023/03/07 02:16:06;;;;;;;51.00;21.63;;;2.50;99.90;;;;;;5050396;28;20025;-45
2023/03/07 02:18:34;;;;;;;51.58;23.38;;;2.40;99.90;;;;;;5050379;28;20048;-45
2023/03/07 02:21:11;;;;;;;41.58;20.35;;;2.40;99.90;;;;;;5050027;28;20017;-45
2023/03/07 02:23:40;;;;;;;43.03;21.08;;;2.40;99.90;;;;;;5050339;28;20021;-45
2023/03/07 02:26:29;;;;;;;43.70;19.40;;;2.40;99.90;;;;;;5046050;28;20025;-45
2023/03/07 02:28:55;;;;;;;41.28;19.23;;;2.50;99.90;;;;;;5011891;28;20041;-45
2023/03/07 02:31:22;;;;;;;42.22;21.02;;;2.50;99.90;;;;;;5049846;28;20025;-46
2023/03/07 02:33:48;;;;;;;41.95;19.67;;;2.50;99.90;;;;;;5049952;28;20032;-45
2023/03/07 02:36:18;;;;;;;48.28;20.88;;;2.50;99.90;;;;;;5050092;28;20013;-45
2023/03/07 02:38:48;;;;;;;43.22;20.67;;;2.50;99.90;;;;;;5048423;28;20029;-45
2023/03/07 02:41:18;;;;;;;40.35;19.67;;;2.50;99.90;;;;;;5056969;28;20036;-46
2023/03/07 02:43:44;;;;;;;46.92;21.83;;;2.50;99.90;;;;;;5049786;28;20267;-46
2023/03/07 02:46:09;;;;;;;42.88;20.58;;;2.60;99.90;;;;;;5049033;28;20025;-44
2023/03/07 02:48:35;;;;;;;44.35;20.95;;;2.60;99.90;;;;;;5054457;28;20020;-46
2023/03/07 02:51:00;;;;;;;40.33;19.17;;;2.50;99.90;;;;;;5062027;28;20037;-43
2023/03/07 02:53:27;;;;;;;44.47;20.65;;;2.50;99.90;;;;;;5049602;28;20023;-46
2023/03/07 02:55:52;;;;;;;45.42;22.13;;;2.50;99.90;;;;;;5049338;28;20059;-46
2023/03/07 02:58:18;;;;;;;45.05;19.77;;;2.40;99.90;;;;;;5049778;28;20466;-46
2023/03/07 03:00:43;;;;;;;48.85;21.15;;;2.50;99.90;;;;;;5049361;28;20096;-45
2023/03/07 03:03:10;;;;;;;42.30;19.30;;;2.50;99.90;;;;;;5064686;28;20052;-46
2023/03/07 03:05:36;;;;;;;46.75;20.00;;;2.50;99.90;;;;;;5049798;28;20017;-49
2023/03/07 03:08:02;;;;;;;46.85;21.10;;;2.40;99.90;;;;;;5050029;28;20017;-46
2023/03/07 03:10:27;;;;;;;42.45;20.40;;;2.40;99.90;;;;;;5049700;28;20059;-46
2023/03/07 03:12:53;;;;;;;46.30;20.00;;;2.40;99.90;;;;;;5049192;28;20399;-46
2023/03/07 03:15:19;;;;;;;44.03;21.98;;;2.40;99.90;;;;;;5047960;28;20020;-45
2023/03/07 03:17:45;;;;;;;44.45;20.10;;;2.40;99.90;;;;;;5051020;28;20221;-46
2023/03/07 03:20:11;;;;;;;41.45;19.35;;;2.40;99.90;;;;;;5049068;28;20024;-46
2023/03/07 03:22:40;;;;;;;42.30;19.00;;;2.50;99.90;;;;;;5049097;28;20036;-48
2023/03/07 03:25:08;;;;;;;44.50;21.25;;;2.40;99.90;;;;;;5043465;28;20059;-47
2023/03/07 03:27:34;;;;;;;41.03;20.95;;;2.50;99.90;;;;;;5048818;28;20493;-46
2023/03/07 03:30:00;;;;;;;39.78;19.90;;;2.40;99.90;;;;;;5047154;28;20033;-45
2023/03/07 03:32:25;;;;;;;40.50;19.30;;;2.50;99.90;;;;;;5048755;28;20028;-49
2023/03/07 03:34:51;;;;;;;39.25;19.40;;;2.40;99.90;;;;;;5048696;28;20025;-47
2023/03/07 03:37:17;;;;;;;42.22;18.85;;;2.40;99.90;;;;;;5049046;28;20023;-46
2023/03/07 03:39:42;;;;;;;40.95;19.02;;;2.50;99.90;;;;;;5049083;28;20021;-46
2023/03/07 03:42:08;;;;;;;37.05;17.17;;;2.50;99.90;;;;;;5053185;28;20021;-45
2023/03/07 03:44:33;;;;;;;36.38;17.75;;;2.50;99.90;;;;;;5048189;28;20024;-46
2023/03/07 03:46:59;;;;;;;44.58;19.67;;;2.50;99.90;;;;;;5049785;28;20037;-48
2023/03/07 03:49:24;;;;;;;34.75;18.15;;;2.50;99.90;;;;;;5048347;28;20482;-47
2023/03/07 03:51:50;;;;;;;40.22;19.33;;;2.50;99.90;;;;;;5047523;28;20033;-46
2023/03/07 03:54:15;;;;;;;37.38;18.45;;;2.50;99.90;;;;;;5047189;28;20083;-47
2023/03/07 03:56:41;;;;;;;36.28;17.83;;;2.40;99.90;;;;;;5055978;28;20120;-46
2023/03/07 03:59:07;;;;;;;37.72;18.33;;;2.40;99.90;;;;;;5048495;28;20037;-46
2023/03/07 04:01:32;;;;;;;38.78;17.48;;;2.40;99.90;;;;;;5047393;28;20108;-45
2023/03/07 04:03:58;;;;;;;34.47;16.70;;;2.40;99.90;;;;;;5048469;28;20029;-46
2023/03/07 04:06:29;;;;;;;37.95;18.25;;;2.40;99.90;;;;;;5048855;28;20048;-44
2023/03/07 04:08:55;;;;;;;40.95;18.65;;;2.40;99.90;;;;;;5048770;28;20021;-44
2023/03/07 04:11:22;;;;;;;37.40;18.00;;;2.40;99.90;;;;;;5048614;28;20095;-44
2023/03/07 04:13:48;;;;;;;36.20;17.25;;;2.40;99.90;;;;;;5045901;28;20106;-44
2023/03/07 04:16:15;;;;;;;37.38;17.27;;;2.40;99.90;;;;;;5047764;28;20359;-45
2023/03/07 04:18:41;;;;;;;39.35;17.98;;;2.50;99.90;;;;;;5048418;28;20056;-45
2023/03/07 04:21:07;;;;;;;34.38;17.00;;;2.50;99.90;;;;;;5045736;28;20025;-45
2023/03/07 04:23:33;;;;;;;34.33;16.10;;;2.50;99.90;;;;;;5048111;28;20021;-45
2023/03/07 04:26:00;;;;;;;34.13;16.17;;;2.40;99.90;;;;;;5048176;28;20044;-45
2023/03/07 04:28:29;;;;;;;38.95;16.88;;;2.40;99.90;;;;;;5047942;28;20025;-45
2023/03/07 04:30:55;;;;;;;38.45;17.77;;;2.40;99.90;;;;;;5048471;28;20151;-44
2023/03/07 04:33:21;;;;;;;32.53;15.77;;;2.40;99.90;;;;;;5048932;28;20516;-44
2023/03/07 04:35:47;;;;;;;38.95;17.48;;;2.50;99.90;;;;;;5064085;28;20028;-45
2023/03/07 04:38:13;;;;;;;35.17;17.40;;;2.40;99.90;;;;;;5049018;28;20025;-45
2023/03/07 04:40:39;;;;;;;32.10;15.25;;;2.40;99.90;;;;;;5048687;28;20021;-45
2023/03/07 04:43:04;;;;;;;30.20;15.38;;;2.50;99.90;;;;;;5049072;28;20379;-45
2023/03/07 04:45:33;;;;;;;34.85;15.57;;;2.60;99.90;;;;;;5048183;28;20482;-45
2023/03/07 04:47:59;;;;;;;30.95;14.32;;;2.60;99.90;;;;;;5048591;28;20028;-45
2023/03/07 04:50:24;;;;;;;29.92;14.98;;;2.50;99.90;;;;;;5047464;28;20025;-45
2023/03/07 04:52:50;;;;;;;28.33;13.40;;;2.60;99.90;;;;;;5048605;28;20120;-44
2023/03/07 04:55:16;;;;;;;32.03;14.15;;;2.60;99.90;;;;;;5048269;28;20099;-44
2023/03/07 04:57:41;;;;;;;28.67;15.75;;;2.60;99.90;;;;;;5048789;28;20033;-44
2023/03/07 05:00:08;;;;;;;28.58;15.05;;;2.70;99.90;;;;;;5048046;28;20480;-44
2023/03/07 05:02:35;;;;;;;32.97;15.38;;;2.60;99.90;;;;;;5048224;28;20108;-44
2023/03/07 05:05:01;;;;;;;30.67;14.48;;;2.70;99.90;;;;;;5048027;28;20071;-45
2023/03/07 05:07:28;;;;;;;27.27;15.20;;;2.70;99.90;;;;;;5048238;28;20252;-44
2023/03/07 05:09:54;;;;;;;33.60;15.20;;;2.70;99.90;;;;;;5048721;28;20474;-45
2023/03/07 05:12:20;;;;;;;32.42;15.15;;;2.70;99.90;;;;;;5051930;28;20029;-44
2023/03/07 05:14:45;;;;;;;27.17;13.70;;;2.70;99.90;;;;;;5051438;28;20033;-44
2023/03/07 05:17:11;;;;;;;26.05;14.38;;;2.70;99.90;;;;;;5051524;28;20025;-44
2023/03/07 05:19:36;;;;;;;30.88;14.50;;;2.70;99.90;;;;;;5051701;28;20159;-45
2023/03/07 05:22:02;;;;;;;30.92;14.98;;;2.70;99.90;;;;;;5051524;28;20058;-44
2023/03/07 05:24:27;;;;;;;27.80;14.88;;;2.80;99.90;;;;;;5050679;28;20111;-44
2023/03/07 05:26:53;;;;;;;27.63;13.90;;;2.70;99.90;;;;;;5051513;28;20021;-45
2023/03/07 05:29:18;;;;;;;30.15;14.55;;;2.70;99.90;;;;;;5051582;28;20025;-44
2023/03/07 05:31:44;;;;;;;30.25;15.70;;;2.70;99.90;;;;;;5051205;28;20021;-44
2023/03/07 05:34:09;;;;;;;31.00;15.65;;;2.70;99.90;;;;;;5049394;28;20032;-44
2023/03/07 05:36:35;;;;;;;32.60;15.43;;;2.70;99.90;;;;;;5049938;28;20108;-44
2023/03/07 05:39:01;;;;;;;30.17;15.35;;;2.70;99.90;;;;;;5051043;28;20423;-44
2023/03/07 05:41:27;;;;;;;28.23;14.80;;;2.70;99.90;;;;;;5051257;28;20093;-45
2023/03/07 05:43:54;;;;;;;29.52;14.60;;;2.70;99.90;;;;;;5051346;28;20056;-44
2023/03/07 05:46:20;;;;;;;29.75;15.05;;;2.70;99.90;;;;;;5050477;28;20030;-44
2023/03/07 05:48:45;;;;;;;31.20;14.70;;;2.70;99.90;;;;;;5052471;28;20106;-43
2023/03/07 05:51:11;;;;;;;33.75;16.70;;;2.70;99.90;;;;;;5051441;28;20029;-44
2023/03/07 05:53:36;;;;;;;31.65;15.23;;;2.70;99.90;;;;;;5050702;28;20441;-45
2023/03/07 05:56:02;;;;;;;32.55;15.27;;;2.60;99.90;;;;;;5050749;28;20343;-44
2023/03/07 05:58:28;;;;;;;32.97;16.67;;;2.50;99.90;;;;;;5049695;28;20033;-44
2023/03/07 06:00:53;;;;;;;28.92;14.05;;;2.40;99.90;;;;;;5050363;28;20032;-45
2023/03/07 06:03:19;;;;;;;32.42;15.80;;;2.40;99.90;;;;;;5050613;28;20031;-44
2023/03/07 06:05:48;;;;;;;28.48;14.55;;;2.40;99.90;;;;;;5050672;28;20108;-44
2023/03/07 06:08:14;;;;;;;25.73;13.87;;;2.30;99.90;;;;;;5050580;28;20463;-44
2023/03/07 06:10:41;;;;;;;25.90;13.57;;;2.30;99.90;;;;;;5050842;28;20025;-45
2023/03/07 06:13:14;;;;;;;24.40;12.50;;;2.30;99.90;;;;;;5051102;28;20017;-44
2023/03/07 06:15:39;;;;;;;20.83;10.27;;;2.20;99.90;;;;;;5050423;28;20017;-46
2023/03/07 06:18:05;;;;;;;14.25;8.77;;;2.20;99.90;;;;;;5050981;28;20395;-47
2023/03/07 06:20:31;;;;;;;13.60;7.40;;;2.10;99.90;;;;;;5050587;28;20021;-44
2023/03/07 06:22:58;;;;;;;14.07;7.55;;;2.10;99.90;;;;;;5051644;28;20032;-45
2023/03/07 06:25:24;;;;;;;11.45;7.13;;;2.10;99.90;;;;;;5054386;28;20017;-45
2023/03/07 06:27:49;;;;;;;9.57;5.40;;;2.00;99.90;;;;;;5055476;28;20481;-44
2023/03/07 06:30:16;;;;;;;9.82;5.18;;;2.00;99.90;;;;;;5062924;28;20025;-44
2023/03/07 06:32:42;;;;;;;11.45;5.20;;;1.90;99.90;;;;;;5070908;28;20051;-45
2023/03/07 06:35:08;;;;;;;14.23;5.28;;;1.80;99.90;;;;;;5070194;28;20458;-45
2023/03/07 06:37:33;;;;;;;12.95;5.20;;;1.80;99.90;;;;;;5068888;28;20107;-45
2023/03/07 06:39:59;;;;;;;9.00;3.80;;;1.70;99.90;;;;;;5068746;28;20104;-44
2023/03/07 06:42:24;;;;;;;6.30;3.80;;;1.80;99.90;;;;;;5065925;28;20533;-46
2023/03/07 06:44:50;;;;;;;8.52;4.15;;;1.80;99.90;;;;;;5047348;28;20039;-44
2023/03/07 06:47:15;;;;;;;7.15;3.33;;;1.80;99.90;;;;;;5048498;28;20040;-44
2023/03/07 06:49:41;;;;;;;10.13;4.28;;;1.80;99.90;;;;;;5048334;28;20035;-45
2023/03/07 06:52:07;;;;;;;9.23;3.00;;;1.80;99.90;;;;;;5050156;28;20029;-45
2023/03/07 06:54:32;;;;;;;12.32;3.97;;;1.80;99.90;;;;;;5047975;28;20037;-39
2023/03/07 06:56:57;;;;;;;11.48;4.90;;;1.80;99.90;;;;;;5046914;28;20025;-38
2023/03/07 06:59:23;;;;;;;8.70;3.30;;;1.90;99.90;;;;;;5049151;28;20032;-39
2023/03/07 07:01:49;;;;;;;7.82;4.55;;;1.90;99.90;;;;;;5049622;28;20111;-39
2023/03/07 07:04:14;;;;;;;11.32;3.35;;;2.00;99.90;;;;;;5048766;28;20528;-38
2023/03/07 07:06:40;;;;;;;14.25;3.50;;;2.00;99.90;;;;;;5049114;28;20029;-38
2023/03/07 07:09:05;;;;;;;8.80;2.90;;;2.10;99.90;;;;;;5048322;28;20501;-38
2023/03/07 07:11:31;;;;;;;11.10;3.45;;;2.20;99.90;;;;;;5049380;28;20032;-38
2023/03/07 07:13:56;;;;;;;5.40;2.88;;;2.30;99.90;;;;;;5048868;28;20028;-38
2023/03/07 07:16:22;;;;;;;8.75;3.03;;;2.30;99.90;;;;;;5048937;28;20113;-38
2023/03/07 07:18:51;;;;;;;9.82;3.33;;;2.40;99.90;;;;;;5048787;28;20056;-38
2023/03/07 07:21:17;;;;;;;14.38;3.90;;;2.40;99.90;;;;;;5047742;28;20052;-39
2023/03/07 07:23:42;;;;;;;6.22;3.50;;;2.40;99.90;;;;;;5047602;28;20028;-38
2023/03/07 07:26:08;;;;;;;5.55;3.22;;;2.50;99.90;;;;;;5048476;28;20202;-38
2023/03/07 07:28:34;;;;;;;9.70;3.58;;;2.50;99.90;;;;;;5048991;28;20099;-38
2023/03/07 07:31:02;;;;;;;10.98;3.33;;;2.60;99.90;;;;;;5049147;28;20215;-38
2023/03/07 07:33:28;;;;;;;8.38;3.08;;;2.60;99.90;;;;;;5048482;28;20025;-38
2023/03/07 07:35:54;;;;;;;9.85;2.83;;;2.60;99.90;;;;;;5048789;28;20094;-38
2023/03/07 07:38:19;;;;;;;11.30;2.90;;;2.60;99.90;;;;;;5048801;28;20029;-45
2023/03/07 07:40:45;;;;;;;11.40;2.53;;;2.60;99.90;;;;;;5049096;28;20032;-45
2023/03/07 07:43:15;;;;;;;7.63;2.80;;;2.60;99.90;;;;;;5047307;28;20108;-45
2023/03/07 07:45:41;;;;;;;5.78;2.63;;;2.70;99.90;;;;;;5048871;28;20069;-48
2023/03/07 07:48:07;;;;;;;6.30;2.28;;;2.70;99.90;;;;;;5048918;28;20067;-45
2023/03/07 07:50:32;;;;;;;8.77;2.17;;;2.70;99.90;;;;;;5049095;28;20021;-45
2023/03/07 07:52:58;;;;;;;5.57;1.92;;;2.80;99.90;;;;;;5049247;28;20053;-45
2023/03/07 07:55:23;;;;;;;4.65;2.17;;;2.80;99.90;;;;;;5047112;28;20033;-45
2023/03/07 07:57:50;;;;;;;3.28;2.10;;;2.80;99.90;;;;;;5048833;28;20470;-44
2023/03/07 08:00:19;;;;;;;3.97;1.85;;;2.90;99.90;;;;;;5048564;28;20040;-44
2023/03/07 08:02:49;;;;;;;4.45;2.75;;;2.90;99.90;;;;;;5048773;28;20187;-45
2023/03/07 08:05:16;;;;;;;4.88;2.30;;;3.00;99.90;;;;;;5048237;28;20379;-44
2023/03/07 08:07:42;;;;;;;4.20;2.15;;;2.90;99.90;;;;;;5049107;28;20110;-44
2023/03/07 08:10:09;;;;;;;9.65;2.30;;;3.00;99.90;;;;;;5047234;28;20087;-44
2023/03/07 08:12:34;;;;;;;9.93;2.65;;;3.00;99.90;;;;;;5048765;28;20040;-44
2023/03/07 08:15:00;;;;;;;5.65;2.42;;;3.00;99.90;;;;;;5048317;28;20029;-44
2023/03/07 08:17:27;;;;;;;5.70;2.80;;;3.00;99.90;;;;;;5049110;28;20033;-44
2023/03/07 08:19:52;;;;;;;6.80;2.63;;;3.00;99.90;;;;;;5048526;28;20287;-44
2023/03/07 08:22:18;;;;;;;6.90;2.42;;;3.00;99.90;;;;;;5053186;28;20016;-44
2023/03/07 08:24:44;;;;;;;6.32;2.20;;;3.00;99.90;;;;;;5060022;28;20493;-44
2023/03/07 08:27:10;;;;;;;7.53;2.15;;;3.00;99.90;;;;;;5056621;28;20021;-44
2023/03/07 08:29:35;;;;;;;6.63;1.90;;;3.00;99.90;;;;;;5063917;28;20116;-45
2023/03/07 08:32:01;;;;;;;6.20;1.73;;;3.10;99.90;;;;;;5067510;28;20024;-44
2023/03/07 08:34:26;;;;;;;5.15;1.80;;;3.00;99.90;;;;;;5068463;28;20111;-44
2023/03/07 08:36:52;;;;;;;5.53;1.85;;;3.10;99.90;;;;;;5067514;28;20024;-45
2023/03/07 08:39:17;;;;;;;4.78;1.70;;;3.10;99.90;;;;;;5058715;28;20215;-44
2023/03/07 08:41:43;;;;;;;3.85;1.73;;;3.10;99.90;;;;;;5056753;28;20435;-44
2023/03/07 08:44:08;;;;;;;6.90;1.92;;;3.10;99.90;;;;;;5067920;28;20075;-44
2023/03/07 08:46:34;;;;;;;5.20;2.20;;;3.20;99.90;;;;;;5052522;28;20474;-44
2023/03/07 08:49:00;;;;;;;6.95;1.80;;;3.20;99.90;;;;;;5052619;28;20478;-44
2023/03/07 08:51:25;;;;;;;5.75;2.20;;;3.30;99.90;;;;;;5052429;28;20521;-44
2023/03/07 08:53:51;;;;;;;5.07;2.00;;;3.20;99.90;;;;;;5052503;28;20032;-45
2023/03/07 08:56:18;;;;;;;5.82;2.20;;;3.30;99.90;;;;;;5052232;28;20035;-46
2023/03/07 08:58:44;;;;;;;5.53;1.75;;;3.30;99.90;;;;;;5051041;28;20505;-44
2023/03/07 09:01:09;;;;;;;4.80;1.70;;;3.30;99.90;;;;;;5051674;28;20025;-44
2023/03/07 09:03:35;;;;;;;6.00;2.22;;;3.30;99.90;;;;;;5066839;28;20490;-45
2023/03/07 09:06:02;;;;;;;3.17;2.40;;;3.30;99.90;;;;;;5056126;28;20032;-44
2023/03/07 09:08:28;;;;;;;5.07;2.05;;;3.30;99.90;;;;;;5052345;28;20044;-44
2023/03/07 09:10:54;;;;;;;4.07;2.30;;;3.40;99.90;;;;;;5052242;28;20076;-44
2023/03/07 09:13:19;;;;;;;9.85;2.70;;;3.40;99.90;;;;;;5051973;28;20017;-45
2023/03/07 09:15:45;;;;;;;5.93;1.90;;;3.50;99.90;;;;;;5051518;28;20437;-44
2023/03/07 09:18:11;;;;;;;5.93;2.25;;;3.50;99.90;;;;;;5050466;28;20430;-44
2023/03/07 09:20:38;;;;;;;5.88;3.03;;;3.50;99.90;;;;;;5051728;28;20025;-44
2023/03/07 09:23:05;;;;;;;7.35;2.50;;;3.50;99.90;;;;;;5051940;28;20079;-44
2023/03/07 09:25:30;;;;;;;7.82;2.28;;;3.60;99.90;;;;;;5051403;28;20501;-44
2023/03/07 09:27:56;;;;;;;5.13;1.85;;;3.60;99.90;;;;;;5051788;28;20041;-44
2023/03/07 09:30:22;;;;;;;5.55;2.55;;;3.70;99.90;;;;;;5051495;28;20025;-44
2023/03/07 09:32:49;;;;;;;5.55;2.13;;;3.60;99.90;;;;;;5051559;28;20348;-44
2023/03/07 09:35:14;;;;;;;11.77;4.63;;;3.60;99.90;;;;;;5051380;28;20025;-45
2023/03/07 09:37:40;;;;;;;5.53;2.17;;;3.60;99.90;;;;;;5066773;28;20021;-44
2023/03/07 09:40:06;;;;;;;7.63;2.92;;;3.60;99.90;;;;;;5051042;28;20078;-44
2023/03/07 09:42:48;;;;;;;6.60;2.33;;;3.50;99.90;;;;;;5051279;28;20441;-47
2023/03/07 09:45:19;;;;;;;3.97;1.85;;;3.40;99.90;;;;;;5069696;28;20016;-44
2023/03/07 09:47:59;;;;;;;2.67;1.73;;;3.40;99.90;;;;;;5051608;28;20127;-44
2023/03/07 09:50:36;;;;;;;8.82;2.05;;;3.30;99.90;;;;;;5051377;28;20099;-44
2023/03/07 09:53:04;;;;;;;6.05;2.20;;;3.40;99.90;;;;;;5051557;28;20076;-45
2023/03/07 09:55:31;;;;;;;4.72;2.35;;;3.50;99.90;;;;;;5050498;28;20025;-44
2023/03/07 09:58:03;;;;;;;7.78;2.67;;;3.40;99.90;;;;;;5051352;28;20383;-45
2023/03/07 10:00:34;;;;;;;6.00;2.60;;;3.40;99.90;;;;;;5049771;28;20470;-45
2023/03/07 10:03:17;;;;;;;7.97;2.53;;;3.50;99.90;;;;;;5049575;28;20083;-47
2023/03/07 10:05:51;;;;;;;9.00;2.53;;;3.60;99.90;;;;;;5050082;28;20021;-39
2023/03/07 10:08:21;;;;;;;5.55;2.22;;;3.60;99.90;;;;;;5031026;28;20030;-39
2023/03/07 10:10:57;;;;;;;6.53;2.55;;;3.60;99.90;;;;;;5037885;28;20498;-39
2023/03/07 10:13:32;;;;;;;7.32;2.55;;;3.50;99.90;;;;;;5043186;28;20017;-39
2023/03/07 10:16:08;;;;;;;9.05;2.75;;;3.40;99.90;;;;;;5050281;28;20021;-39
2023/03/07 10:18:45;;;;;;;6.80;2.88;;;3.40;99.90;;;;;;5050353;28;20612;-39
2023/03/07 10:21:36;;;;;;;10.55;2.90;;;3.40;99.90;;;;;;5050311;28;20482;-39
2023/03/07 10:24:30;;;;;;;10.27;2.70;;;3.40;99.90;;;;;;5049963;28;20025;-39
2023/03/07 10:27:00;;;;;;;8.15;2.70;;;3.30;99.90;;;;;;5050000;28;20078;-39
2023/03/07 10:29:33;;;;;;;6.50;2.45;;;3.20;99.90;;;;;;5049322;28;20023;-39
2023/03/07 10:32:19;;;;;;;6.00;2.97;;;3.20;99.90;;;;;;5049525;28;20025;-39
2023/03/07 10:35:01;;;;;;;3.83;2.40;;;3.10;99.90;;;;;;5049648;28;20032;-39
2023/03/07 10:37:49;;;;;;;6.22;2.42;;;3.10;99.90;;;;;;5050527;28;20029;-39
2023/03/07 10:40:35;;;;;;;10.90;2.97;;;3.00;99.90;;;;;;5050036;28;20025;-39
2023/03/07 10:43:01;;;;;;;7.32;2.78;;;3.00;99.90;;;;;;5048917;28;20489;-39
2023/03/07 10:45:30;;;;;;;6.05;2.95;;;3.00;99.90;;;;;;5049995;28;20047;-39
2023/03/07 10:48:08;;;;;;;7.95;3.03;;;3.00;99.90;;;;;;5049785;28;20025;-39
2023/03/07 10:50:59;;;;;;;5.82;2.28;;;2.80;99.90;;;;;;5049572;28;20040;-39
2023/03/07 10:53:29;;;;;;;6.63;2.25;;;2.90;99.90;;;;;;5049746;28;20025;-39
2023/03/07 10:56:13;;;;;;;4.07;2.63;;;2.90;99.90;;;;;;5049714;28;20025;-39
2023/03/07 10:58:44;;;;;;;5.88;2.40;;;2.90;99.90;;;;;;5048347;28;20083;-39
2023/03/07 11:01:17;;;;;;;5.50;2.45;;;3.00;99.90;;;;;;5049387;28;20025;-39
2023/03/07 11:03:45;;;;;;;6.13;2.55;;;2.90;99.90;;;;;;5054746;28;20036;-39
2023/03/07 11:06:26;;;;;;;6.32;2.65;;;3.00;99.90;;;;;;5066967;28;20554;-39
2023/03/07 11:08:52;;;;;;;6.35;3.00;;;3.10;99.90;;;;;;5046161;28;20456;-39
2023/03/07 11:11:31;;;;;;;9.45;2.90;;;3.10;99.90;;;;;;5049488;28;20021;-39
2023/03/07 11:14:17;;;;;;;5.40;2.90;;;3.00;99.90;;;;;;5048854;28;20025;-39
2023/03/07 11:16:49;;;;;;;7.50;2.80;;;3.00;99.90;;;;;;5047621;28;20398;-39
2023/03/07 11:19:32;;;;;;;7.00;2.83;;;2.90;99.90;;;;;;5047104;28;20021;-39
2023/03/07 11:22:01;;;;;;;9.07;3.05;;;3.00;99.90;;;;;;5049456;28;20017;-39
2023/03/07 11:24:54;;;;;;;5.00;2.30;;;3.00;99.90;;;;;;5049243;28;20437;-39
2023/03/07 11:27:24;;;;;;;4.60;2.10;;;3.00;99.90;;;;;;5022138;28;20083;-39
2023/03/07 11:30:06;;;;;;;6.75;2.92;;;3.00;99.90;;;;;;5049274;28;20528;-39
2023/03/07 11:32:35;;;;;;;4.68;2.30;;;2.90;99.90;;;;;;5047448;28;20439;-39
2023/03/07 11:35:42;;;;;;;5.17;2.90;;;2.90;99.90;;;;;;5048467;28;20057;-39
2023/03/07 11:38:24;;;;;;;5.93;3.50;;;2.90;99.90;;;;;;5031667;28;20041;-39
2023/03/07 11:41:13;;;;;;;7.43;3.35;;;2.80;99.90;;;;;;5049186;28;20103;-39
2023/03/07 11:44:04;;;;;;;4.72;3.20;;;3.00;99.90;;;;;;5048571;28;20443;-39
2023/03/07 11:46:37;;;;;;;6.78;3.17;;;3.00;99.90;;;;;;5048681;28;20720;-39
2023/03/07 11:49:25;;;;;;;7.88;2.80;;;3.20;99.90;;;;;;5048633;28;20033;-39
2023/03/07 11:52:29;;;;;;;3.05;2.20;;;3.20;99.90;;;;;;5049039;28;20127;-39
2023/03/07 11:55:25;;;;;;;5.75;2.33;;;3.10;99.90;;;;;;5048393;28;20055;-39
2023/03/07 11:58:22;;;;;;;5.55;2.10;;;3.10;99.90;;;;;;5047610;28;20032;-39
2023/03/07 12:00:51;;;;;;;5.20;2.17;;;3.10;99.90;;;;;;5033834;28;20036;-39
2023/03/07 12:03:29;;;;;;;7.95;2.20;;;2.90;99.90;;;;;;5048538;28;20505;-39
2023/03/07 12:06:13;;;;;;;8.02;3.42;;;2.90;99.90;;;;;;5048139;28;20017;-39
2023/03/07 12:09:00;;;;;;;3.05;2.10;;;2.90;99.90;;;;;;5048118;28;20067;-39
2023/03/07 12:11:54;;;;;;;7.28;2.10;;;2.80;99.90;;;;;;5048531;28;20095;-39
2023/03/07 12:15:17;;;;;;;3.25;2.17;;;2.80;99.90;;;;;;5043837;28;20044;-39
2023/03/07 12:18:07;;;;;;;4.30;2.40;;;2.80;99.90;;;;;;5018380;28;20029;-39
2023/03/07 12:20:48;;;;;;;6.53;2.72;;;2.70;99.90;;;;;;5008968;28;20028;-39
2023/03/07 12:23:23;;;;;;;3.38;2.45;;;2.80;99.90;;;;;;5042284;28;20033;-39
2023/03/07 12:26:02;;;;;;;2.85;2.05;;;2.80;99.90;;;;;;5052450;28;20009;-39
2023/03/07 12:28:38;;;;;;;11.40;4.05;;;2.80;99.90;;;;;;5051097;28;20031;-39
2023/03/07 12:31:27;;;;;;;2.80;2.00;;;2.80;99.90;;;;;;5052518;28;20116;-39
2023/03/07 12:34:08;;;;;;;5.47;2.55;;;2.70;99.90;;;;;;5051176;28;20021;-40
2023/03/07 12:36:49;;;;;;;9.45;2.58;;;2.80;99.90;;;;;;5052429;28;20017;-39
2023/03/07 12:39:31;;;;;;;4.25;2.40;;;2.80;99.90;;;;;;5052148;28;20021;-39
2023/03/07 12:42:25;;;;;;;4.82;2.70;;;2.80;99.90;;;;;;5052406;28;20025;-39
2023/03/07 12:45:16;;;;;;;3.88;2.60;;;2.80;99.90;;;;;;5051868;28;20029;-39
2023/03/07 12:47:42;;;;;;;5.57;2.50;;;2.80;99.90;;;;;;5051967;28;20044;-39
2023/03/07 12:50:11;;;;;;;3.38;2.22;;;2.80;99.90;;;;;;5051384;28;20032;-39
2023/03/07 12:52:47;;;;;;;4.45;2.58;;;2.80;99.90;;;;;;5051557;28;20549;-39
2023/03/07 12:55:37;;;;;;;6.75;2.38;;;2.90;99.90;;;;;;5055291;28;20024;-39
2023/03/07 12:58:30;;;;;;;6.60;2.22;;;2.90;99.90;;;;;;5068482;28;20263;-39